ADDS TAF Board (Experimental) INFO Settings

IDs: Format: Expanded Condensed

KMIA - Miami Intl, FL, US

Issued at 1133 UTC 27 Apr 2015
Updated at: 1205 UTC 27 Apr 2015
Time1153Z 27/13Z 27/14Z 27/15Z 27/16Z 27/17Z 27/18Z 27/19Z 27/20Z 27/21Z 27/22Z 27/23Z 28/00Z 28/01Z
Type OBS PRVL PRVL PRVL PRVL PRVL PRVL PRVL PRVL PRVL PRVL PRVL PRVL PRVL
VIS 10 >6 >6 >6 >6 >6 >6 >6 >6 >6 >6 >6 >6 >6
CIG 300 300 300 300 200 200 200 70 70 70 70 70 -- --
Cover BKN BKN BKN BKN BKN BKN BKN BKN BKN BKN BKN BKN SCT SCT
FltCat VFR VFR VFR VFR VFR VFR VFR VFR VFR VFR VFR VFR VFR VFR
WX -- -- -- -- VCTS VCTS VCTS VCTS VCTS VCTS VCTS VCTS -- --
WDir 250 230 230 230 250 250 250 80 80 80 80 80 170 170
WSpd 4 5 5 5 10 10 10 11 11 11 11 11 4 4
WGst -- -- -- -- -- -- -- -- -- -- -- -- -- --
R08/26
XWnd -1 -3 -3 -3 -3 -3 -3 1 1 1 1 1 -4 -4
HWnd -4 -4 -4 -4 -10 -10 -10 11 11 11 11 11 0 0
R09/27
XWnd -1 -3 -3 -3 -3 -3 -3 1 1 1 1 1 -4 -4
HWnd -4 -4 -4 -4 -10 -10 -10 11 11 11 11 11 0 0
R12/30
XWnd -3 -5 -5 -5 -8 -8 -8 7 7 7 7 7 -3 -3
HWnd -3 -2 -2 -2 -7 -7 -7 9 9 9 9 9 3 3

NOTE: TEMPO conditions in [brackets]. Keep in mind TEMPO conditions might be better (lower impact) than prevailing conditions.

Raw TAF
KMIA 271133Z 2712/2812 23005KT P6SM SCT200 BKN300
  FM271600 25010KT P6SM VCTS SCT030CB BKN200
  FM271900 08011KT P6SM VCTS SCT030CB BKN070
  FM280000 17004KT P6SM SCT050


Raw METAR
KMIA 271153Z 25004KT 10SM FEW200 BKN300 27/24 A2983 RMK AO2 SLP102 T02670239 10267 20256 53015 $
KMIA 271053Z 00000KT 8SM SCT200 BKN300 26/23 A2980 RMK AO2 SLP092 T02560233 $
KMIA 270953Z 22004KT 10SM CLR 26/23 A2979 RMK AO2 SLP088 T02560233

METAR Board
Radar Display
Forecast Discussion

TAF Board Legend

Potential Impact
Threat None Slight Moderate High
Visibility (sm) ≥5.1 5.1>X≥3 3>X≥1 <1
Ceiling (100 ft) ≥30.1 30.1>X≥10 10>X≥5 <5
Wind Speed (kt) <10 10≤X<20 20≤X<30 ≥30
Wind Gust (kt) <15 15≤X<25 25≤X<35 ≥35
Weather No Wx Reported VCTS,-TS,-FZRA,SN TS,FZRA +TS,+FZRA,+SN